Time;durP1;ratioP1;P1;durP2;ratioP2;P2;SDS_P1;SDS_P2;PMS_P1;PMS_P2;Temp;Humidity;BMP_temperature;BMP_pressure;BME280_temperature;BME280_humidity;BME280_pressure;Samples;Min_cycle;Max_cycle;Signal;HPM_P1;HPM_P2
2024/01/07 00:02:59;;;;;;;1.70;0.93;;;22.60;41.60;;;;;;10200793;28;20419;-43
2024/01/07 00:08:02;;;;;;;2.58;0.93;;;22.50;41.70;;;;;;10209694;28;20074;-42
2024/01/07 00:13:04;;;;;;;1.08;0.90;;;22.50;41.50;;;;;;10226982;28;20074;-42
2024/01/07 00:18:06;;;;;;;2.17;1.00;;;22.50;41.50;;;;;;10207784;28;20050;-42
2024/01/07 00:23:09;;;;;;;0.75;0.63;;;22.40;42.10;;;;;;10229259;28;20141;-42
2024/01/07 00:28:11;;;;;;;1.08;0.90;;;22.50;41.40;;;;;;10230555;28;20164;-42
2024/01/07 00:33:13;;;;;;;1.00;0.73;;;22.40;41.40;;;;;;10195923;28;20498;-42
2024/01/07 00:38:16;;;;;;;1.98;0.80;;;22.40;41.40;;;;;;10194935;28;20249;-42
2024/01/07 00:43:18;;;;;;;2.70;0.80;;;22.40;41.30;;;;;;10194598;28;20052;-46
2024/01/07 00:48:19;;;;;;;1.05;0.70;;;22.30;41.30;;;;;;10193342;28;20048;-42
2024/01/07 00:53:22;;;;;;;1.08;0.88;;;22.30;41.30;;;;;;10188295;29;20055;-44
2024/01/07 00:58:24;;;;;;;0.82;0.70;;;22.30;41.20;;;;;;10192074;28;20048;-42
2024/01/07 01:03:26;;;;;;;0.75;0.60;;;22.30;41.40;;;;;;10189483;28;20066;-43
2024/01/07 01:08:28;;;;;;;0.82;0.70;;;22.20;41.30;;;;;;10189744;28;20170;-46
2024/01/07 01:13:30;;;;;;;1.17;0.80;;;22.30;41.30;;;;;;10190969;28;20098;-42
2024/01/07 01:18:32;;;;;;;1.10;0.75;;;22.30;41.20;;;;;;10192376;28;20529;-44
2024/01/07 01:23:35;;;;;;;0.60;0.60;;;22.30;41.20;;;;;;10186077;28;20498;-42
2024/01/07 01:28:36;;;;;;;0.95;0.70;;;22.20;41.20;;;;;;10194795;28;20198;-44
2024/01/07 01:33:38;;;;;;;0.93;0.80;;;22.20;41.20;;;;;;10191701;28;20044;-42
2024/01/07 01:38:41;;;;;;;1.00;0.60;;;22.10;41.20;;;;;;10224212;28;20050;-42
2024/01/07 01:43:42;;;;;;;0.70;0.60;;;22.10;41.20;;;;;;10227888;28;20059;-42
2024/01/07 01:48:44;;;;;;;0.93;0.60;;;22.10;41.20;;;;;;10236030;28;20055;-41
2024/01/07 01:53:47;;;;;;;1.55;0.60;;;22.10;41.20;;;;;;10232856;28;20129;-42
2024/01/07 01:58:48;;;;;;;1.33;0.70;;;22.10;41.30;;;;;;10236854;28;20060;-42
2024/01/07 02:03:51;;;;;;;0.77;0.75;;;22.00;41.30;;;;;;10233632;28;20548;-42
2024/01/07 02:08:54;;;;;;;0.60;0.60;;;22.00;41.20;;;;;;10230217;28;20047;-42
2024/01/07 02:13:56;;;;;;;2.17;0.85;;;22.10;41.20;;;;;;10235879;28;20078;-43
2024/01/07 02:18:57;;;;;;;0.90;0.70;;;22.00;41.30;;;;;;10242720;28;20053;-42
2024/01/07 02:24:07;;;;;;;0.73;0.70;;;22.00;41.10;;;;;;10230489;28;20051;-42
2024/01/07 02:29:08;;;;;;;0.80;0.57;;;22.00;41.20;;;;;;10232307;28;20428;-42
2024/01/07 02:34:10;;;;;;;0.80;0.50;;;21.90;41.20;;;;;;10229968;28;20407;-43
2024/01/07 02:39:13;;;;;;;0.77;0.68;;;21.90;41.20;;;;;;10233780;28;20043;-42
2024/01/07 02:44:15;;;;;;;1.13;0.70;;;21.90;41.30;;;;;;10226310;28;20039;-42
2024/01/07 02:49:16;;;;;;;0.90;0.70;;;21.90;41.20;;;;;;10230139;28;20051;-42
2024/01/07 02:54:19;;;;;;;0.70;0.70;;;21.90;41.10;;;;;;10233091;28;20096;-44
2024/01/07 02:59:21;;;;;;;1.15;0.60;;;21.90;41.20;;;;;;10233970;28;20048;-43
2024/01/07 03:04:22;;;;;;;0.77;0.73;;;21.80;41.10;;;;;;10232354;28;20065;-43
2024/01/07 03:09:25;;;;;;;0.88;0.60;;;21.80;41.10;;;;;;10193859;28;20059;-42
2024/01/07 03:14:27;;;;;;;0.77;0.60;;;21.80;41.20;;;;;;10183620;28;20070;-42
2024/01/07 03:19:29;;;;;;;0.82;0.60;;;21.70;41.20;;;;;;10249198;28;20055;-47
2024/01/07 03:24:32;;;;;;;1.23;0.70;;;21.70;41.30;;;;;;10258773;28;20055;-42
2024/01/07 03:29:33;;;;;;;0.90;0.70;;;21.80;41.00;;;;;;10210109;29;20052;-46
2024/01/07 03:34:35;;;;;;;0.60;0.60;;;21.80;41.70;;;;;;10212140;29;20055;-44
2024/01/07 03:39:38;;;;;;;0.55;0.55;;;21.70;41.20;;;;;;10204499;29;20079;-42
2024/01/07 03:44:40;;;;;;;0.50;0.40;;;21.70;41.00;;;;;;10209745;28;20044;-42
2024/01/07 03:49:41;;;;;;;0.70;0.55;;;21.70;41.00;;;;;;10209783;28;20417;-43
2024/01/07 03:54:44;;;;;;;0.60;0.60;;;21.70;40.90;;;;;;10243787;28;20075;-45
2024/01/07 03:59:46;;;;;;;0.75;0.60;;;21.70;40.90;;;;;;10231219;28;20048;-43
2024/01/07 04:04:47;;;;;;;1.80;0.70;;;21.60;41.10;;;;;;10245084;28;20050;-42
2024/01/07 04:09:50;;;;;;;0.68;0.57;;;21.70;41.10;;;;;;10246216;28;20485;-43
2024/01/07 04:14:52;;;;;;;2.40;0.70;;;21.80;41.00;;;;;;10242216;28;20501;-44
2024/01/07 04:19:53;;;;;;;0.60;0.60;;;21.90;40.90;;;;;;10244442;28;20511;-46
2024/01/07 04:24:56;;;;;;;0.70;0.60;;;21.90;40.80;;;;;;10227926;28;20044;-42
2024/01/07 04:29:58;;;;;;;0.50;0.50;;;21.90;40.70;;;;;;10203683;28;20055;-46
2024/01/07 04:34:59;;;;;;;1.23;0.70;;;22.00;40.60;;;;;;10236437;28;20056;-42
2024/01/07 04:40:03;;;;;;;0.70;0.60;;;22.20;40.50;;;;;;10229243;28;20058;-43
2024/01/07 04:45:05;;;;;;;0.82;0.60;;;22.30;40.20;;;;;;10245721;28;20062;-42
2024/01/07 04:50:08;;;;;;;0.85;0.60;;;22.50;40.10;;;;;;10247096;28;20066;-45
2024/01/07 04:55:11;;;;;;;0.90;0.60;;;22.60;39.90;;;;;;10243334;28;20047;-45
2024/01/07 05:00:13;;;;;;;0.75;0.70;;;22.60;39.90;;;;;;10205005;28;20058;-43
2024/01/07 05:05:15;;;;;;;1.35;0.65;;;22.60;39.90;;;;;;10228253;28;20130;-42
2024/01/07 05:10:18;;;;;;;0.63;0.52;;;22.70;40.40;;;;;;10223130;28;20056;-41
2024/01/07 05:15:19;;;;;;;0.65;0.63;;;22.70;39.80;;;;;;10198559;28;20052;-43
2024/01/07 05:20:21;;;;;;;1.33;0.60;;;22.80;39.60;;;;;;10206925;28;20039;-44
2024/01/07 05:25:24;;;;;;;1.58;0.60;;;22.80;39.60;;;;;;10253109;28;20068;-45
2024/01/07 05:30:25;;;;;;;0.68;0.57;;;22.80;39.60;;;;;;10224670;28;20043;-45
2024/01/07 05:35:27;;;;;;;0.70;0.65;;;22.90;39.60;;;;;;10189188;28;20055;-44
2024/01/07 05:40:30;;;;;;;0.65;0.60;;;22.80;39.50;;;;;;10196889;28;20566;-41
2024/01/07 05:45:31;;;;;;;0.50;0.50;;;23.00;39.30;;;;;;10235684;28;20465;-44
2024/01/07 05:50:33;;;;;;;0.45;0.43;;;22.90;39.40;;;;;;10238850;28;20157;-42
2024/01/07 05:55:36;;;;;;;1.15;0.60;;;23.00;39.40;;;;;;10226476;28;20051;-42
2024/01/07 06:00:38;;;;;;;2.20;0.70;;;23.00;39.20;;;;;;10232291;28;20047;-46
2024/01/07 06:05:40;;;;;;;3.15;0.57;;;23.10;39.20;;;;;;10231378;28;20062;-42
2024/01/07 06:10:43;;;;;;;3.05;0.55;;;23.00;39.60;;;;;;10228603;28;20111;-43
2024/01/07 06:15:45;;;;;;;4.72;0.85;;;23.20;39.50;;;;;;10223034;28;20055;-43
2024/01/07 06:20:46;;;;;;;2.97;0.50;;;23.30;39.90;;;;;;10229279;28;20055;-41
2024/01/07 06:25:49;;;;;;;10.52;0.70;;;23.30;39.90;;;;;;10232950;28;20155;-42
2024/01/07 06:30:51;;;;;;;2.83;0.60;;;23.20;40.10;;;;;;10232710;28;20043;-48
2024/01/07 06:35:53;;;;;;;1.05;0.60;;;23.50;39.60;;;;;;10227964;28;20054;-42
2024/01/07 06:41:00;;;;;;;1.95;0.50;;;23.50;39.30;;;;;;10236336;28;20054;-44
2024/01/07 06:46:02;;;;;;;1.42;0.60;;;23.60;39.40;;;;;;10235896;28;20619;-42
2024/01/07 06:51:04;;;;;;;12.40;1.63;;;23.70;39.10;;;;;;10231346;28;20048;-42
2024/01/07 06:56:07;;;;;;;13.85;2.72;;;23.40;40.20;;;;;;10210429;28;20047;-44
2024/01/07 07:01:08;;;;;;;8.95;4.10;;;23.40;40.40;;;;;;10227179;28;20047;-49
2024/01/07 07:06:11;;;;;;;20.27;6.45;;;23.30;40.80;;;;;;10216749;28;20058;-42
2024/01/07 07:11:14;;;;;;;14.23;8.10;;;23.50;41.10;;;;;;10179476;28;20071;-42
2024/01/07 07:16:16;;;;;;;22.30;11.77;;;23.80;40.80;;;;;;10192852;28;20058;-42
2024/01/07 07:21:17;;;;;;;30.85;14.75;;;24.00;40.60;;;;;;10198320;28;20048;-46
2024/01/07 07:26:20;;;;;;;33.22;20.38;;;24.10;40.30;;;;;;10189080;28;20520;-42
2024/01/07 07:31:22;;;;;;;37.88;23.63;;;24.30;40.30;;;;;;10193935;28;20127;-46
2024/01/07 07:36:23;;;;;;;32.63;19.88;;;24.40;39.40;;;;;;10183092;28;20056;-41
2024/01/07 07:41:26;;;;;;;27.42;17.58;;;24.30;39.40;;;;;;10203123;28;20104;-42
2024/01/07 07:46:28;;;;;;;26.15;14.02;;;24.50;38.70;;;;;;10232487;28;20051;-43
2024/01/07 07:51:30;;;;;;;34.53;18.92;;;24.30;38.20;;;;;;10205108;28;20050;-42
2024/01/07 07:56:33;;;;;;;30.50;19.52;;;24.10;38.60;;;;;;10204498;28;20047;-42
2024/01/07 08:01:34;;;;;;;32.28;20.90;;;24.10;39.00;;;;;;10228094;28;20134;-42
2024/01/07 08:06:36;;;;;;;32.60;22.38;;;24.10;38.90;;;;;;10230643;28;20044;-43
2024/01/07 08:11:39;;;;;;;44.88;24.67;;;24.10;39.20;;;;;;10228799;28;20123;-43
2024/01/07 08:16:42;;;;;;;43.50;25.27;;;24.10;39.40;;;;;;10228990;28;20063;-44
2024/01/07 08:21:44;;;;;;;43.83;26.23;;;24.10;39.80;;;;;;10265341;28;20048;-43
2024/01/07 08:26:46;;;;;;;44.20;27.98;;;24.20;39.80;;;;;;10184518;28;20437;-42
2024/01/07 08:31:48;;;;;;;46.25;27.05;;;24.30;40.00;;;;;;10193911;28;20070;-44
2024/01/07 08:36:50;;;;;;;61.25;27.77;;;24.40;40.40;;;;;;10195167;28;20537;-41
2024/01/07 08:41:53;;;;;;;54.75;29.75;;;24.40;40.60;;;;;;10188274;28;20414;-42
2024/01/07 08:46:55;;;;;;;61.15;35.17;;;24.80;40.80;;;;;;10192743;28;20105;-43
2024/01/07 08:51:57;;;;;;;52.55;34.35;;;25.20;40.70;;;;;;10194013;28;20048;-47
2024/01/07 08:57:00;;;;;;;46.53;30.23;;;25.20;40.50;;;;;;10191973;28;20056;-42
2024/01/07 09:02:02;;;;;;;41.58;29.88;;;24.70;40.30;;;;;;10194551;29;20040;-47
2024/01/07 09:07:04;;;;;;;39.63;28.85;;;24.50;39.70;;;;;;10225287;28;20121;-43
2024/01/07 09:12:08;;;;;;;47.00;29.02;;;24.60;39.20;;;;;;10234054;28;20054;-42
2024/01/07 09:17:09;;;;;;;56.53;30.50;;;24.50;38.80;;;;;;10236077;28;20046;-44
2024/01/07 09:22:11;;;;;;;55.20;30.73;;;24.60;38.90;;;;;;10239894;28;20047;-42
2024/01/07 09:27:14;;;;;;;50.30;31.30;;;24.80;38.40;;;;;;10205530;28;20102;-42
2024/01/07 09:32:16;;;;;;;62.05;29.33;;;25.00;38.10;;;;;;10186527;29;20040;-43
2024/01/07 09:37:17;;;;;;;55.33;25.30;;;25.00;39.30;;;;;;10195995;28;20058;-46
2024/01/07 09:42:20;;;;;;;56.47;22.10;;;25.10;40.30;;;;;;10186738;29;20040;-42
2024/01/07 09:47:23;;;;;;;39.78;17.48;;;24.90;39.80;;;;;;10215304;28;20488;-42
2024/01/07 09:52:25;;;;;;;30.90;14.80;;;24.80;39.00;;;;;;10233150;28;20701;-42
2024/01/07 09:57:28;;;;;;;24.30;12.35;;;24.80;37.50;;;;;;10217011;28;20052;-47
2024/01/07 10:02:29;;;;;;;19.55;9.90;;;24.80;36.50;;;;;;10211796;28;20050;-42
2024/01/07 10:07:32;;;;;;;19.50;9.57;;;24.70;35.30;;;;;;10225239;28;20047;-42
2024/01/07 10:12:35;;;;;;;16.77;8.95;;;25.10;35.00;;;;;;10212060;28;20126;-42
2024/01/07 10:17:38;;;;;;;13.65;8.43;;;25.40;35.10;;;;;;10191865;29;20720;-44
2024/01/07 10:22:40;;;;;;;16.25;8.10;;;25.70;35.20;;;;;;10191915;29;20047;-44
2024/01/07 10:27:43;;;;;;;13.50;7.53;;;25.90;35.20;;;;;;10198007;28;20138;-46
2024/01/07 10:32:44;;;;;;;15.43;7.10;;;26.10;35.40;;;;;;10190933;28;20056;-41
2024/01/07 10:37:46;;;;;;;11.13;7.32;;;26.30;35.60;;;;;;10227469;28;20047;-44
2024/01/07 10:42:49;;;;;;;8.15;6.50;;;26.30;35.80;;;;;;10245909;28;20062;-42
2024/01/07 10:47:51;;;;;;;11.80;6.68;;;26.40;35.90;;;;;;10236024;28;20051;-46
2024/01/07 10:53:01;;;;;;;9.20;6.18;;;26.30;35.90;;;;;;10234133;28;20040;-42
2024/01/07 10:58:05;;;;;;;10.83;5.83;;;25.70;34.80;;;;;;10228590;28;20055;-48
2024/01/07 11:03:11;;;;;;;10.77;5.53;;;25.50;35.10;;;;;;10229641;28;20395;-45
2024/01/07 11:08:16;;;;;;;9.18;6.03;;;25.40;35.40;;;;;;10231393;28;20134;-43
2024/01/07 11:13:34;;;;;;;13.93;6.53;;;25.40;35.90;;;;;;10228516;28;20497;-42
2024/01/07 11:18:39;;;;;;;8.05;5.68;;;25.40;36.20;;;;;;10229554;28;20059;-42
2024/01/07 11:23:46;;;;;;;11.48;5.78;;;25.40;36.50;;;;;;10225243;28;20102;-43
2024/01/07 11:28:50;;;;;;;7.30;5.40;;;25.40;36.60;;;;;;10232496;28;20047;-44
2024/01/07 11:33:52;;;;;;;6.57;5.00;;;25.40;36.80;;;;;;10229009;29;20090;-42
2024/01/07 11:38:54;;;;;;;7.20;5.15;;;25.40;37.00;;;;;;10231179;28;20129;-43
2024/01/07 11:43:58;;;;;;;5.97;4.47;;;25.40;36.90;;;;;;10228960;29;20039;-42
2024/01/07 11:49:01;;;;;;;8.13;5.00;;;25.40;36.80;;;;;;10229099;28;20074;-44
2024/01/07 11:54:03;;;;;;;6.60;4.35;;;25.40;37.00;;;;;;10233739;28;20054;-47
2024/01/07 11:59:07;;;;;;;12.27;4.80;;;25.40;37.10;;;;;;10233892;28;20059;-42
2024/01/07 12:04:09;;;;;;;8.75;4.38;;;25.50;37.20;;;;;;10248518;28;20417;-48
2024/01/07 12:09:13;;;;;;;11.05;4.32;;;25.70;38.10;;;;;;10199197;29;20744;-44
2024/01/07 12:14:16;;;;;;;9.40;4.00;;;25.50;38.60;;;;;;10187557;29;20047;-43
2024/01/07 12:19:17;;;;;;;11.38;3.90;;;25.70;38.60;;;;;;10198466;28;20048;-43
2024/01/07 12:24:19;;;;;;;6.55;4.03;;;25.70;38.90;;;;;;10199753;28;20044;-42
2024/01/07 12:29:22;;;;;;;5.28;3.50;;;25.80;39.20;;;;;;10224595;28;20524;-44
2024/01/07 12:34:24;;;;;;;8.35;3.83;;;26.00;38.80;;;;;;10229656;28;20039;-43
2024/01/07 12:39:25;;;;;;;6.65;3.33;;;25.90;39.10;;;;;;10230571;28;20125;-42
2024/01/07 12:44:29;;;;;;;8.40;3.10;;;26.00;39.20;;;;;;10244067;28;20047;-44
2024/01/07 12:49:31;;;;;;;2.90;2.53;;;26.10;37.50;;;;;;10427713;28;20041;-44
2024/01/07 12:54:33;;;;;;;13.10;3.53;;;26.40;37.40;;;;;;10434622;28;20059;-44
2024/01/07 12:59:36;;;;;;;6.13;2.67;;;26.50;37.90;;;;;;10237180;28;20055;-45
2024/01/07 13:04:38;;;;;;;6.35;2.88;;;26.10;38.00;;;;;;10407683;28;20045;-47
2024/01/07 13:09:39;;;;;;;152.70;71.20;;;26.00;38.00;;;;;;10202034;28;20058;-43
2024/01/07 13:14:42;;;;;;;67.97;33.67;;;25.90;39.80;;;;;;10235527;28;20050;-47
2024/01/07 13:19:44;;;;;;;45.08;21.85;;;25.40;38.10;;;;;;10225242;28;20062;-43
2024/01/07 13:24:46;;;;;;;29.48;16.33;;;25.10;35.80;;;;;;10188224;28;20509;-45
2024/01/07 13:29:48;;;;;;;22.73;12.10;;;24.90;35.50;;;;;;10195623;28;20501;-43
2024/01/07 13:34:50;;;;;;;19.55;9.98;;;25.10;34.10;;;;;;10233339;28;20055;-43
2024/01/07 13:39:52;;;;;;;15.98;7.93;;;25.20;33.20;;;;;;10249141;28;20557;-45
2024/01/07 13:44:55;;;;;;;15.18;8.07;;;25.10;33.10;;;;;;10388190;28;20063;-48
2024/01/07 13:49:56;;;;;;;16.10;8.13;;;25.00;34.60;;;;;;10196999;28;20043;-43
2024/01/07 13:54:58;;;;;;;14.63;7.72;;;25.00;35.60;;;;;;10197310;28;20058;-44
2024/01/07 14:00:07;;;;;;;14.75;7.68;;;25.00;36.40;;;;;;10229157;28;20055;-42
2024/01/07 14:05:11;;;;;;;13.95;7.18;;;25.00;39.00;;;;;;10222287;28;20497;-48
2024/01/07 14:10:12;;;;;;;12.63;6.43;;;25.00;38.70;;;;;;10225682;28;20051;-47
2024/01/07 14:15:17;;;;;;;13.63;6.93;;;24.90;40.20;;;;;;10224277;28;20051;-42
2024/01/07 14:20:18;;;;;;;11.88;6.32;;;24.90;40.10;;;;;;10233741;28;20541;-43
2024/01/07 14:25:20;;;;;;;15.75;6.20;;;24.90;41.00;;;;;;10225616;28;20039;-41
2024/01/07 14:30:23;;;;;;;13.45;6.07;;;24.90;41.90;;;;;;10189285;29;20062;-43
2024/01/07 14:35:25;;;;;;;13.32;5.43;;;25.00;41.90;;;;;;10186120;29;20131;-43
2024/01/07 14:40:27;;;;;;;18.77;5.43;;;24.90;42.20;;;;;;10186836;29;20052;-43
2024/01/07 14:45:30;;;;;;;13.35;5.22;;;24.90;41.20;;;;;;10199127;28;20188;-42
2024/01/07 14:50:32;;;;;;;19.30;5.20;;;24.80;40.70;;;;;;10187861;28;20060;-42
2024/01/07 14:55:33;;;;;;;18.20;3.70;;;24.70;40.60;;;;;;10188165;28;20052;-42
2024/01/07 15:00:36;;;;;;;18.10;3.78;;;24.70;36.40;;;;;;10191085;28;20090;-44
2024/01/07 15:05:39;;;;;;;13.57;3.10;;;24.70;35.70;;;;;;10187826;28;20467;-42
2024/01/07 15:10:42;;;;;;;13.73;2.83;;;24.60;32.50;;;;;;10186669;29;20509;-46
2024/01/07 15:15:45;;;;;;;10.85;2.60;;;24.50;31.60;;;;;;10183236;28;20063;-43
2024/01/07 15:20:46;;;;;;;11.57;3.10;;;24.60;32.00;;;;;;10187895;29;20048;-42
2024/01/07 15:25:48;;;;;;;7.80;2.88;;;24.60;33.30;;;;;;10186570;28;20597;-44
2024/01/07 15:30:51;;;;;;;10.02;2.63;;;24.70;34.40;;;;;;10194358;28;20645;-42
2024/01/07 15:35:52;;;;;;;16.17;3.55;;;24.70;35.50;;;;;;10184708;29;20079;-45
2024/01/07 15:40:54;;;;;;;9.60;2.90;;;24.60;36.30;;;;;;10197783;28;20079;-42
2024/01/07 15:45:57;;;;;;;17.73;3.47;;;24.60;37.10;;;;;;10234199;28;20044;-42
2024/01/07 15:50:59;;;;;;;9.63;2.95;;;24.60;37.40;;;;;;10221817;28;20495;-44
2024/01/07 15:56:01;;;;;;;16.60;2.80;;;24.50;37.80;;;;;;10189381;28;20056;-42
2024/01/07 16:01:04;;;;;;;10.73;2.90;;;24.50;38.00;;;;;;10198238;28;20054;-42
2024/01/07 16:06:06;;;;;;;20.58;2.85;;;24.50;38.20;;;;;;10221015;28;20127;-42
2024/01/07 16:11:11;;;;;;;7.78;2.42;;;24.40;38.70;;;;;;10218889;28;20056;-43
2024/01/07 16:16:14;;;;;;;24.33;3.30;;;24.40;38.90;;;;;;10213019;28;20047;-42
2024/01/07 16:21:16;;;;;;;17.52;3.95;;;24.50;39.50;;;;;;10219658;28;20054;-44
2024/01/07 16:26:17;;;;;;;11.57;2.80;;;24.50;39.90;;;;;;10188205;28;20142;-42
2024/01/07 16:31:20;;;;;;;8.77;2.80;;;24.40;39.80;;;;;;10200960;28;20066;-42
2024/01/07 16:36:22;;;;;;;9.65;2.70;;;24.50;39.80;;;;;;10218311;28;20058;-45
2024/01/07 16:41:24;;;;;;;13.65;2.90;;;24.40;39.90;;;;;;10232389;28;20062;-47
2024/01/07 16:46:27;;;;;;;11.32;2.97;;;24.50;39.70;;;;;;10233464;28;20505;-44
2024/01/07 16:51:29;;;;;;;9.50;2.92;;;24.40;40.00;;;;;;10359867;28;20131;-46
2024/01/07 16:56:30;;;;;;;9.75;3.08;;;24.40;39.20;;;;;;10438168;28;20506;-44
2024/01/07 17:01:33;;;;;;;8.32;2.88;;;24.40;36.50;;;;;;10439946;28;20041;-43
2024/01/07 17:06:35;;;;;;;6.18;2.65;;;24.40;35.30;;;;;;10352098;28;20050;-43
2024/01/07 17:11:37;;;;;;;9.13;4.22;;;24.30;35.80;;;;;;10218285;28;20058;-42
2024/01/07 17:16:41;;;;;;;10.32;5.22;;;24.30;37.10;;;;;;10191959;29;20052;-42
2024/01/07 17:21:43;;;;;;;15.70;7.57;;;24.40;37.60;;;;;;10202310;28;20061;-43
2024/01/07 17:26:44;;;;;;;17.38;7.47;;;24.60;39.60;;;;;;10225525;28;20135;-43
2024/01/07 17:31:47;;;;;;;18.20;6.50;;;26.00;37.20;;;;;;10225295;28;20043;-43
2024/01/07 17:36:49;;;;;;;10.75;4.85;;;25.30;38.00;;;;;;10238621;28;20055;-43
2024/01/07 17:41:51;;;;;;;8.52;4.03;;;25.20;37.20;;;;;;10232538;28;20055;-43
2024/01/07 17:46:54;;;;;;;11.20;4.68;;;25.20;37.10;;;;;;10228611;28;20058;-42
2024/01/07 17:51:55;;;;;;;8.07;5.85;;;25.20;37.50;;;;;;10233767;28;20425;-43
2024/01/07 17:56:57;;;;;;;10.52;5.80;;;25.30;37.10;;;;;;10222558;28;20052;-43
2024/01/07 18:02:00;;;;;;;8.75;4.80;;;25.20;36.70;;;;;;10218386;28;20054;-43
2024/01/07 18:07:02;;;;;;;8.40;5.05;;;24.80;36.80;;;;;;10224983;28;20055;-43
2024/01/07 18:12:04;;;;;;;7.47;4.90;;;24.80;35.60;;;;;;10227279;28;20055;-44
2024/01/07 18:17:07;;;;;;;5.25;4.55;;;24.80;34.80;;;;;;10233433;28;20146;-43
2024/01/07 18:22:08;;;;;;;9.02;4.70;;;24.80;34.20;;;;;;10227751;28;20065;-43
2024/01/07 18:27:10;;;;;;;7.88;5.38;;;24.60;34.70;;;;;;10240137;28;20044;-45
2024/01/07 18:32:13;;;;;;;12.23;5.28;;;24.50;35.10;;;;;;10211915;28;20805;-44
2024/01/07 18:37:16;;;;;;;9.70;4.82;;;24.60;35.90;;;;;;10198335;28;20142;-44
2024/01/07 18:42:18;;;;;;;7.47;4.85;;;24.50;36.80;;;;;;10185280;28;20083;-43
2024/01/07 18:47:21;;;;;;;9.68;4.50;;;24.50;37.60;;;;;;10209119;28;20066;-42
2024/01/07 18:52:23;;;;;;;6.03;4.60;;;24.40;37.80;;;;;;10207013;28;20079;-43
2024/01/07 18:57:25;;;;;;;7.88;4.68;;;24.50;38.40;;;;;;10218581;28;20055;-43
2024/01/07 19:02:28;;;;;;;6.50;4.57;;;24.50;38.70;;;;;;10235426;28;20047;-43
2024/01/07 19:07:29;;;;;;;6.13;4.20;;;24.50;39.20;;;;;;10231744;28;20073;-44
2024/01/07 19:12:31;;;;;;;7.00;4.07;;;24.40;39.60;;;;;;10234789;28;20554;-42
2024/01/07 19:17:34;;;;;;;7.13;4.15;;;24.40;39.60;;;;;;10224190;28;20469;-43
2024/01/07 19:22:36;;;;;;;4.90;4.00;;;24.50;39.50;;;;;;10235079;28;20082;-44
2024/01/07 19:27:38;;;;;;;5.60;3.97;;;24.50;39.60;;;;;;10229186;28;20047;-46
2024/01/07 19:32:42;;;;;;;5.22;3.95;;;24.40;39.80;;;;;;10227763;28;20051;-42
2024/01/07 19:37:43;;;;;;;6.15;4.18;;;24.40;40.50;;;;;;10232019;28;20047;-42
2024/01/07 19:42:45;;;;;;;5.80;4.18;;;24.40;39.90;;;;;;10224686;28;20055;-43
2024/01/07 19:47:48;;;;;;;5.70;4.47;;;24.40;40.00;;;;;;10229013;28;20555;-43
2024/01/07 19:52:50;;;;;;;6.30;4.32;;;24.50;39.60;;;;;;10219206;28;20048;-42
2024/01/07 19:57:51;;;;;;;4.95;4.22;;;24.40;39.50;;;;;;10225068;28;20055;-44
2024/01/07 20:02:54;;;;;;;5.25;4.32;;;24.50;39.20;;;;;;10229348;28;20066;-42
2024/01/07 20:07:56;;;;;;;8.48;4.70;;;24.50;39.30;;;;;;10234067;28;20070;-43
2024/01/07 20:12:58;;;;;;;6.15;4.60;;;24.30;39.90;;;;;;10236039;28;20054;-46
2024/01/07 20:18:01;;;;;;;5.38;4.63;;;24.20;40.20;;;;;;10225787;28;20074;-44
2024/01/07 20:23:03;;;;;;;12.50;5.32;;;24.10;40.30;;;;;;10230006;28;20054;-45
2024/01/07 20:28:05;;;;;;;6.93;4.43;;;24.10;40.30;;;;;;10234121;28;20055;-44
2024/01/07 20:33:09;;;;;;;7.75;4.70;;;23.90;40.40;;;;;;10229175;28;20054;-44
2024/01/07 20:38:11;;;;;;;12.18;4.60;;;23.80;37.90;;;;;;10227597;28;20079;-44
2024/01/07 20:43:13;;;;;;;8.52;4.75;;;23.60;39.70;;;;;;10229299;28;20139;-50
2024/01/07 20:48:16;;;;;;;7.93;5.10;;;23.40;40.20;;;;;;10239674;28;20498;-42
2024/01/07 20:53:19;;;;;;;6.95;4.40;;;23.40;40.20;;;;;;10235126;28;20490;-47
2024/01/07 20:58:21;;;;;;;6.05;4.57;;;23.50;40.20;;;;;;10232498;28;20058;-42
2024/01/07 21:03:25;;;;;;;7.32;4.63;;;23.50;40.10;;;;;;10235032;28;20501;-43
2024/01/07 21:08:28;;;;;;;8.20;4.72;;;23.30;40.50;;;;;;10235408;28;20508;-43
2024/01/07 21:13:29;;;;;;;9.57;4.50;;;23.30;40.70;;;;;;10230332;28;20472;-44
2024/01/07 21:18:32;;;;;;;5.50;4.55;;;23.10;41.40;;;;;;10233248;28;20150;-44
2024/01/07 21:23:34;;;;;;;10.43;4.75;;;23.10;41.50;;;;;;10235100;28;20822;-42
2024/01/07 21:28:36;;;;;;;7.95;4.43;;;22.90;41.90;;;;;;10241441;28;20047;-43
2024/01/07 21:33:39;;;;;;;5.13;4.40;;;22.90;42.10;;;;;;10232238;28;20055;-43
2024/01/07 21:38:40;;;;;;;9.38;4.47;;;23.00;41.90;;;;;;10241852;28;20057;-42
2024/01/07 21:43:42;;;;;;;5.25;4.55;;;23.10;41.80;;;;;;10244942;28;20062;-43
2024/01/07 21:48:45;;;;;;;5.35;4.57;;;23.10;41.70;;;;;;10202273;28;20062;-44
2024/01/07 21:53:46;;;;;;;5.70;4.32;;;22.90;41.60;;;;;;10221086;28;20080;-42
2024/01/07 21:58:48;;;;;;;7.47;4.85;;;23.10;41.30;;;;;;10221494;28;20058;-42
2024/01/07 22:03:51;;;;;;;5.43;4.45;;;23.00;41.30;;;;;;10196613;28;20139;-43
2024/01/07 22:08:52;;;;;;;7.50;4.82;;;22.90;41.30;;;;;;10185738;29;20569;-48
2024/01/07 22:13:54;;;;;;;7.13;4.45;;;22.90;41.40;;;;;;10226533;28;20502;-46
2024/01/07 22:18:57;;;;;;;5.32;4.60;;;22.90;41.10;;;;;;10241527;28;20941;-42
2024/01/07 22:23:58;;;;;;;5.75;4.80;;;22.90;40.80;;;;;;10227789;28;20468;-42
2024/01/07 22:29:01;;;;;;;5.40;4.57;;;22.90;40.80;;;;;;10232363;28;20055;-42
2024/01/07 22:34:04;;;;;;;7.93;5.30;;;22.80;41.00;;;;;;10222695;28;20043;-42
2024/01/07 22:39:07;;;;;;;7.72;5.18;;;22.70;41.10;;;;;;10223741;28;20126;-43
2024/01/07 22:44:09;;;;;;;7.10;5.93;;;22.70;41.10;;;;;;10235007;28;20150;-43
2024/01/07 22:49:12;;;;;;;7.22;5.78;;;22.70;41.00;;;;;;10232929;28;20505;-43
2024/01/07 22:54:14;;;;;;;5.50;5.00;;;22.70;40.70;;;;;;10233015;28;20142;-42
2024/01/07 22:59:19;;;;;;;6.10;5.50;;;22.70;40.70;;;;;;10234213;28;20062;-43
2024/01/07 23:04:22;;;;;;;6.68;6.00;;;22.70;40.70;;;;;;10224801;28;20079;-43
2024/01/07 23:09:23;;;;;;;6.50;5.80;;;22.60;40.70;;;;;;10225951;28;20047;-43
2024/01/07 23:14:25;;;;;;;6.95;6.00;;;22.50;40.70;;;;;;10226135;28;20044;-43
2024/01/07 23:19:28;;;;;;;6.82;6.10;;;22.60;40.70;;;;;;10238039;28;20603;-42
2024/01/07 23:24:30;;;;;;;6.60;5.90;;;22.50;40.60;;;;;;10232157;28;20058;-44
2024/01/07 23:29:33;;;;;;;6.68;6.07;;;22.50;40.50;;;;;;10230639;28;20059;-48
2024/01/07 23:34:39;;;;;;;6.68;6.07;;;22.60;40.40;;;;;;10231687;28;20560;-42
2024/01/07 23:39:41;;;;;;;6.85;6.25;;;22.50;40.50;;;;;;10241325;28;20134;-44
2024/01/07 23:44:42;;;;;;;7.07;6.30;;;22.40;40.60;;;;;;10239908;28;20059;-42
2024/01/07 23:49:45;;;;;;;7.22;6.53;;;22.40;40.60;;;;;;10227038;28;20098;-42
2024/01/07 23:54:47;;;;;;;6.68;5.97;;;22.40;40.50;;;;;;10226900;28;20134;-43
2024/01/07 23:59:48;;;;;;;6.47;5.78;;;22.30;40.60;;;;;;10212962;28;20502;-43
